Terminal Aerodrome Forecast
Issued by NWS

Home | Current Version | Previous Version | Text Only | Print | Product List | Glossary On
Versions: 1 2 3 4 5 6 7 8 9 10 11 12 13 14 15 16 17 18 19 20 21 22 23 24 25
000
FTAK31 PAFA 011142 CCA
TAFAMC
TAF COR
PAMC 011142Z 0112/0212 18006KT P6SM SCT035 BKN080
     FM011500 21006KT 6SM RA BKN020 OVC035 WS020/23040KT
     FM011800 21010KT 4SM -RA BR BKN015 OVC025 WS020/24040KT=

USA.gov is the U.S. government's official web portal to all federal, state and local government web resources and services.